createdAt,value
2023-04-14T00:02:08.206Z,29.5
2023-04-14T00:07:46.373Z,29.5
2023-04-14T00:13:38.775Z,29.5
2023-04-14T00:19:32.263Z,29.5
2023-04-14T00:25:23.306Z,29.5
2023-04-14T00:31:15.104Z,29.5
2023-04-14T00:36:51.754Z,29.5
2023-04-14T00:42:43.611Z,29.5
2023-04-14T00:48:35.038Z,29.4
2023-04-14T00:54:11.611Z,29.4
2023-04-14T00:59:48.417Z,29.4
2023-04-14T01:05:42.273Z,29.4
2023-04-14T01:11:33.536Z,29.4
2023-04-14T01:17:25.385Z,29.4
2023-04-14T01:23:16.747Z,29.4
2023-04-14T01:28:53.455Z,29.4
2023-04-14T01:34:45.753Z,29.4
2023-04-14T01:40:37.340Z,29.4
2023-04-14T01:46:13.739Z,29.4
2023-04-14T01:52:06.540Z,29.4
2023-04-14T01:57:58.492Z,29.4
2023-04-14T02:03:51.292Z,29.4
2023-04-14T02:09:42.627Z,29.4
2023-04-14T02:15:33.999Z,28.8
2023-04-14T02:21:25.735Z,28.4
2023-04-14T02:27:17.088Z,28.3
2023-04-14T02:33:08.289Z,28.4
2023-04-14T02:38:59.120Z,28.4
2023-04-14T02:44:50.487Z,28.3
2023-04-14T02:50:42.239Z,28.3
2023-04-14T02:56:33.493Z,28.3
2023-04-14T03:02:25.980Z,28.3
2023-04-14T03:08:17.686Z,28.3
2023-04-14T03:13:53.742Z,28.2
2023-04-14T03:19:29.415Z,28.2
2023-04-14T03:25:20.879Z,28.2
2023-04-14T03:31:13.567Z,28.2
2023-04-14T03:37:04.853Z,28.2
2023-04-14T03:42:57.521Z,28.2
2023-04-14T03:48:54.104Z,28.2
2023-04-14T03:54:47.229Z,28.1
2023-04-14T04:00:39.212Z,28.2
2023-04-14T04:06:33.740Z,28.1
2023-04-14T04:12:25.598Z,28.1
2023-04-14T04:18:18.874Z,28.1
2023-04-14T04:24:10.345Z,28.1
2023-04-14T04:30:16.220Z,28.1
2023-04-14T04:36:09.130Z,28
2023-04-14T05:43:55.190Z,27.8
2023-04-14T06:01:03.264Z,27.8
2023-04-14T06:12:35.673Z,27.8
2023-04-14T06:23:48.057Z,27.8
2023-04-14T06:29:24.084Z,27.8
2023-04-14T06:35:25.962Z,27.1
2023-04-14T06:41:20.525Z,26.7
2023-04-14T06:47:13.663Z,26.4
2023-04-14T06:53:05.608Z,26.3
2023-04-14T06:58:57.791Z,26.3
2023-04-14T07:04:52.534Z,26.2
2023-04-14T07:10:44.226Z,26.2
2023-04-14T07:16:36.003Z,26.2
2023-04-14T07:22:14.122Z,26.2
2023-04-14T07:28:18.929Z,36.1
2023-04-14T07:34:11.337Z,34.9
2023-04-14T07:40:14.581Z,32.9
2023-04-14T07:45:50.587Z,36.6
2023-04-14T07:51:43.400Z,39.6
2023-04-14T07:57:37.932Z,41.3
2023-04-14T08:03:20.264Z,42.5
2023-04-14T08:09:12.929Z,43.6
2023-04-14T08:14:48.663Z,44.3
2023-04-14T08:20:10.214Z,45
2023-04-14T08:25:46.513Z,45.7
2023-04-14T08:31:23.218Z,46.2
2023-04-14T08:38:15.149Z,46.6
2023-04-14T08:44:07.099Z,47.1
2023-04-14T08:50:00.440Z,47.7
2023-04-14T08:55:37.007Z,48.6
2023-04-14T09:01:29.914Z,49.5
2023-04-14T09:07:24.838Z,50.5
2023-04-14T09:13:16.249Z,51.4
2023-04-14T09:19:09.805Z,52.1
2023-04-14T09:26:54.768Z,53.9
2023-04-14T09:32:30.610Z,54.9
2023-04-14T09:38:06.796Z,55.3
2023-04-14T09:43:58.140Z,56
2023-04-14T09:49:34.633Z,57.1
2023-04-14T09:55:27.871Z,58.1
2023-04-14T10:01:20.287Z,58.9
2023-04-14T10:06:59.113Z,59.7
2023-04-14T10:12:50.160Z,60.5
2023-04-14T10:18:42.374Z,60.9
2023-04-14T10:24:35.771Z,61.6
2023-04-14T10:30:29.112Z,60.8
2023-04-14T10:36:21.640Z,59.1
2023-04-14T10:41:57.365Z,54.1
2023-04-14T10:47:48.638Z,53.6
2023-04-14T10:53:42.141Z,49.2
2023-04-14T10:59:32.944Z,46.5
2023-04-14T11:05:27.234Z,44.6
2023-04-14T11:11:18.362Z,43.3
2023-04-14T11:17:06.933Z,42.4
2023-04-14T11:22:59.501Z,41.7
2023-04-14T11:28:50.764Z,40.5
2023-04-14T11:34:44.178Z,39.2
2023-04-14T11:40:20.734Z,38.3
2023-04-14T11:46:12.724Z,37.7
2023-04-14T11:51:48.357Z,37.1
2023-04-14T11:57:40.628Z,36.9
2023-04-14T12:03:17.565Z,36.6
2023-04-14T12:08:57.034Z,36.4
2023-04-14T12:14:50.208Z,36.3
2023-04-14T12:19:55.884Z,36.1
2023-04-14T12:25:32.516Z,36
2023-04-14T12:31:24.728Z,35.9
2023-04-14T12:37:18.091Z,35.8
2023-04-14T12:42:53.813Z,35.6
2023-04-14T12:48:46.309Z,35.6
2023-04-14T12:54:38.628Z,35.4
2023-04-14T13:00:30.377Z,35.3
2023-04-14T13:06:26.677Z,35.3
2023-04-14T13:12:20.328Z,48.5
2023-04-14T13:19:07.957Z,43.6
2023-04-14T13:25:00.978Z,41.6
2023-04-14T13:30:53.044Z,49.7
2023-04-14T13:36:30.473Z,45.9
2023-04-14T13:42:24.663Z,43.1
2023-04-14T13:48:20.455Z,41.1
2023-04-14T13:54:12.033Z,39.1
2023-04-14T14:00:06.509Z,37.7
2023-04-14T14:06:02.005Z,36.6
2023-04-14T14:11:56.324Z,35.4
2023-04-14T14:17:43.161Z,34.8
2023-04-14T14:23:35.425Z,34.3
2023-04-14T14:29:24.130Z,33.9
2023-04-14T14:35:20.001Z,33.6
2023-04-14T14:41:12.614Z,33.4
2023-04-14T14:47:09.910Z,33.3
2023-04-14T14:53:12.769Z,33.1
2023-04-14T14:59:13.493Z,32.6
2023-04-14T15:04:52.297Z,30.6
2023-04-14T15:10:43.702Z,26.9
2023-04-14T15:16:35.937Z,24.3
2023-04-14T15:22:27.485Z,22.9
2023-04-14T15:28:19.048Z,22.1
2023-04-14T15:34:11.126Z,21.3
2023-04-14T15:40:03.296Z,22.3
2023-04-14T15:45:55.614Z,19
2023-04-14T15:52:07.947Z,18.1
2023-04-14T15:58:00.230Z,17.7
2023-04-14T16:03:53.522Z,16.5
2023-04-14T16:09:45.710Z,16.5
2023-04-14T16:15:39.016Z,16.4
2023-04-14T16:21:32.388Z,16.4
2023-04-14T16:27:24.503Z,16.4
2023-04-14T16:33:16.286Z,16.3
2023-04-14T16:39:08.200Z,16.3
2023-04-14T16:44:59.785Z,16.3
2023-04-14T16:50:52.553Z,16.2
2023-04-14T16:56:44.451Z,16.1
2023-04-14T17:02:38.796Z,16.1
2023-04-14T17:08:33.825Z,15.9
2023-04-14T17:14:25.870Z,15.8
2023-04-14T17:20:26.702Z,15.8
2023-04-14T17:26:18.641Z,15.6
2023-04-14T17:32:10.562Z,15.6
2023-04-14T17:38:02.201Z,15.9
2023-04-14T17:43:53.961Z,16.4
2023-04-14T17:49:47.344Z,16.6
2023-04-14T17:55:23.608Z,16.9
2023-04-14T18:01:15.582Z,17.1
2023-04-14T18:07:08.977Z,17.2
2023-04-14T18:13:00.475Z,17.3
2023-04-14T18:18:52.154Z,17.4
2023-04-14T18:24:52.530Z,17.6
2023-04-14T18:31:00.967Z,17.6
2023-04-14T18:36:53.321Z,17.6
2023-04-14T18:42:44.758Z,17.7
2023-04-14T18:48:36.762Z,17.8
2023-04-14T18:54:14.485Z,17.8
2023-04-14T19:00:14.974Z,17.9
2023-04-14T19:05:52.355Z,17.9
2023-04-14T19:11:45.062Z,17.9
2023-04-14T19:17:31.760Z,17.9
2023-04-14T19:23:08.198Z,18
2023-04-14T19:28:45.547Z,18
2023-04-14T19:34:22.359Z,18
2023-04-14T19:39:58.960Z,18.1
2023-04-14T19:45:50.492Z,18.1
2023-04-14T19:51:38.884Z,18.1
2023-04-14T19:57:30.563Z,18
2023-04-14T20:03:25.720Z,18.1
2023-04-14T20:09:47.547Z,18
2023-04-14T20:15:39.016Z,18
2023-04-14T20:21:31.313Z,18.1
2023-04-14T20:27:22.575Z,18.1
2023-04-14T20:33:15.317Z,18.1
2023-04-14T20:39:06.334Z,18.1
2023-04-14T20:44:57.357Z,18
2023-04-14T20:50:49.829Z,18.1
2023-04-14T20:56:25.214Z,18.1
2023-04-14T21:02:16.432Z,18.1
2023-04-14T21:08:10.977Z,18.1
2023-04-14T21:18:06.108Z,18.1
2023-04-14T21:23:58.059Z,18.1
2023-04-14T21:29:48.875Z,18.1
2023-04-14T21:35:24.891Z,18.1
2023-04-14T21:41:17.406Z,18.1
2023-04-14T21:46:52.839Z,18.1
2023-04-14T21:52:45.575Z,18.1
2023-04-14T21:59:27.829Z,18.1
2023-04-14T22:05:30.929Z,18.1
2023-04-14T22:11:22.820Z,18.1
2023-04-14T22:17:00.141Z,18.1
2023-04-14T22:22:35.969Z,18.1
2023-04-14T22:28:27.103Z,18.1
2023-04-14T22:34:04.581Z,18.1
2023-04-14T22:39:40.506Z,18.1
2023-04-14T22:45:32.116Z,18.1
2023-04-14T22:51:24.811Z,18.1
2023-04-14T22:57:22.286Z,18.1
2023-04-14T23:03:25.808Z,18.1
2023-04-14T23:09:18.654Z,18.1
2023-04-14T23:15:09.741Z,18.1
2023-04-14T23:21:00.152Z,18.1
2023-04-14T23:26:52.526Z,18.1
2023-04-14T23:32:28.531Z,18.1
2023-04-14T23:38:20.298Z,18.1
2023-04-14T23:44:12.060Z,18.1
2023-04-14T23:50:23.838Z,18.1
2023-04-14T23:56:38.285Z,18.1
